sensor_id;sensor_type;location;lat;lon;timestamp;P1;durP1;ratioP1;P2;durP2;ratioP2
40691;SDS011;26377;53.344;14.886;2022-11-03T00:01:34;8.55;;;3.90;;
40691;SDS011;26377;53.344;14.886;2022-11-03T00:04:04;11.10;;;3.65;;
40691;SDS011;26377;53.344;14.886;2022-11-03T00:06:34;9.80;;;3.60;;
40691;SDS011;26377;53.344;14.886;2022-11-03T00:09:03;10.68;;;3.50;;
40691;SDS011;26377;53.344;14.886;2022-11-03T00:11:33;18.17;;;4.50;;
40691;SDS011;26377;53.344;14.886;2022-11-03T00:14:02;14.75;;;3.55;;
40691;SDS011;26377;53.344;14.886;2022-11-03T00:16:33;14.47;;;3.80;;
40691;SDS011;26377;53.344;14.886;2022-11-03T00:19:02;11.08;;;4.50;;
40691;SDS011;26377;53.344;14.886;2022-11-03T00:21:29;13.83;;;3.92;;
40691;SDS011;26377;53.344;14.886;2022-11-03T00:23:57;14.60;;;3.80;;
40691;SDS011;26377;53.344;14.886;2022-11-03T00:26:28;9.88;;;3.40;;
40691;SDS011;26377;53.344;14.886;2022-11-03T00:29:00;10.65;;;3.20;;
40691;SDS011;26377;53.344;14.886;2022-11-03T00:31:36;18.00;;;3.92;;
40691;SDS011;26377;53.344;14.886;2022-11-03T00:34:06;9.28;;;3.52;;
40691;SDS011;26377;53.344;14.886;2022-11-03T00:36:38;9.15;;;3.80;;
40691;SDS011;26377;53.344;14.886;2022-11-03T00:39:10;7.95;;;3.77;;
40691;SDS011;26377;53.344;14.886;2022-11-03T00:41:38;13.78;;;3.85;;
40691;SDS011;26377;53.344;14.886;2022-11-03T00:44:06;11.48;;;3.80;;
40691;SDS011;26377;53.344;14.886;2022-11-03T00:46:37;11.33;;;4.30;;
40691;SDS011;26377;53.344;14.886;2022-11-03T00:49:07;12.85;;;4.65;;
40691;SDS011;26377;53.344;14.886;2022-11-03T00:51:35;14.45;;;5.00;;
40691;SDS011;26377;53.344;14.886;2022-11-03T00:54:02;11.20;;;4.37;;
40691;SDS011;26377;53.344;14.886;2022-11-03T00:56:37;16.73;;;5.53;;
40691;SDS011;26377;53.344;14.886;2022-11-03T00:59:05;14.70;;;5.05;;
40691;SDS011;26377;53.344;14.886;2022-11-03T01:04:08;8.53;;;3.52;;
40691;SDS011;26377;53.344;14.886;2022-11-03T01:06:57;12.00;;;4.10;;
40691;SDS011;26377;53.344;14.886;2022-11-03T01:12:16;17.07;;;3.70;;
40691;SDS011;26377;53.344;14.886;2022-11-03T01:14:48;9.80;;;3.37;;
40691;SDS011;26377;53.344;14.886;2022-11-03T01:17:21;9.73;;;3.20;;
40691;SDS011;26377;53.344;14.886;2022-11-03T01:19:51;12.35;;;3.58;;
40691;SDS011;26377;53.344;14.886;2022-11-03T01:22:20;11.10;;;4.15;;
40691;SDS011;26377;53.344;14.886;2022-11-03T01:24:49;8.43;;;3.50;;
40691;SDS011;26377;53.344;14.886;2022-11-03T01:27:19;10.75;;;3.37;;
40691;SDS011;26377;53.344;14.886;2022-11-03T01:29:48;13.30;;;3.70;;
40691;SDS011;26377;53.344;14.886;2022-11-03T01:32:17;7.90;;;3.17;;
40691;SDS011;26377;53.344;14.886;2022-11-03T01:34:46;11.20;;;3.98;;
40691;SDS011;26377;53.344;14.886;2022-11-03T01:37:13;7.62;;;2.70;;
40691;SDS011;26377;53.344;14.886;2022-11-03T01:39:41;10.05;;;3.80;;
40691;SDS011;26377;53.344;14.886;2022-11-03T01:42:10;8.98;;;3.12;;
40691;SDS011;26377;53.344;14.886;2022-11-03T01:44:41;11.50;;;3.33;;
40691;SDS011;26377;53.344;14.886;2022-11-03T01:47:17;9.05;;;3.20;;
40691;SDS011;26377;53.344;14.886;2022-11-03T01:49:59;10.95;;;3.45;;
40691;SDS011;26377;53.344;14.886;2022-11-03T01:52:41;17.73;;;3.22;;
40691;SDS011;26377;53.344;14.886;2022-11-03T01:55:18;10.68;;;3.40;;
40691;SDS011;26377;53.344;14.886;2022-11-03T01:58:08;10.28;;;2.85;;
40691;SDS011;26377;53.344;14.886;2022-11-03T02:00:56;10.95;;;2.67;;
40691;SDS011;26377;53.344;14.886;2022-11-03T02:03:27;10.55;;;3.05;;
40691;SDS011;26377;53.344;14.886;2022-11-03T02:05:57;9.83;;;3.30;;
40691;SDS011;26377;53.344;14.886;2022-11-03T02:08:33;14.20;;;3.35;;
40691;SDS011;26377;53.344;14.886;2022-11-03T02:11:05;11.97;;;3.55;;
40691;SDS011;26377;53.344;14.886;2022-11-03T02:13:52;9.25;;;3.12;;
40691;SDS011;26377;53.344;14.886;2022-11-03T02:16:19;12.45;;;3.65;;
40691;SDS011;26377;53.344;14.886;2022-11-03T02:18:49;17.70;;;4.70;;
40691;SDS011;26377;53.344;14.886;2022-11-03T02:21:23;9.63;;;3.00;;
40691;SDS011;26377;53.344;14.886;2022-11-03T02:24:08;9.88;;;2.95;;
40691;SDS011;26377;53.344;14.886;2022-11-03T02:26:47;18.77;;;3.00;;
40691;SDS011;26377;53.344;14.886;2022-11-03T02:29:16;10.95;;;2.75;;
40691;SDS011;26377;53.344;14.886;2022-11-03T02:31:48;10.82;;;2.92;;
40691;SDS011;26377;53.344;14.886;2022-11-03T02:34:24;9.30;;;2.95;;
40691;SDS011;26377;53.344;14.886;2022-11-03T02:37:11;12.73;;;2.90;;
40691;SDS011;26377;53.344;14.886;2022-11-03T02:39:44;9.45;;;3.30;;
40691;SDS011;26377;53.344;14.886;2022-11-03T02:42:35;9.73;;;3.05;;
40691;SDS011;26377;53.344;14.886;2022-11-03T02:45:06;10.70;;;3.52;;
40691;SDS011;26377;53.344;14.886;2022-11-03T02:47:36;12.00;;;3.08;;
40691;SDS011;26377;53.344;14.886;2022-11-03T02:50:06;13.40;;;3.33;;
40691;SDS011;26377;53.344;14.886;2022-11-03T02:52:36;6.65;;;3.05;;
40691;SDS011;26377;53.344;14.886;2022-11-03T02:55:19;5.80;;;2.90;;
40691;SDS011;26377;53.344;14.886;2022-11-03T02:57:49;15.20;;;3.20;;
40691;SDS011;26377;53.344;14.886;2022-11-03T03:00:26;12.18;;;3.05;;
40691;SDS011;26377;53.344;14.886;2022-11-03T03:03:07;11.80;;;3.05;;
40691;SDS011;26377;53.344;14.886;2022-11-03T03:05:41;13.18;;;3.85;;
40691;SDS011;26377;53.344;14.886;2022-11-03T03:08:13;7.85;;;3.47;;
40691;SDS011;26377;53.344;14.886;2022-11-03T03:10:43;8.48;;;3.35;;
40691;SDS011;26377;53.344;14.886;2022-11-03T03:13:16;8.08;;;3.10;;
40691;SDS011;26377;53.344;14.886;2022-11-03T03:18:53;12.30;;;3.55;;
40691;SDS011;26377;53.344;14.886;2022-11-03T03:21:33;10.85;;;3.30;;
40691;SDS011;26377;53.344;14.886;2022-11-03T03:24:08;10.32;;;3.70;;
40691;SDS011;26377;53.344;14.886;2022-11-03T03:26:43;17.37;;;4.30;;
40691;SDS011;26377;53.344;14.886;2022-11-03T03:29:16;8.48;;;3.33;;
40691;SDS011;26377;53.344;14.886;2022-11-03T03:31:50;11.93;;;3.42;;
40691;SDS011;26377;53.344;14.886;2022-11-03T03:34:21;7.70;;;3.00;;
40691;SDS011;26377;53.344;14.886;2022-11-03T03:36:54;13.90;;;3.25;;
40691;SDS011;26377;53.344;14.886;2022-11-03T03:39:24;9.58;;;3.42;;
40691;SDS011;26377;53.344;14.886;2022-11-03T03:41:57;9.85;;;3.92;;
40691;SDS011;26377;53.344;14.886;2022-11-03T03:44:27;8.13;;;3.63;;
40691;SDS011;26377;53.344;14.886;2022-11-03T03:46:59;14.68;;;4.03;;
40691;SDS011;26377;53.344;14.886;2022-11-03T03:49:29;7.35;;;3.25;;
40691;SDS011;26377;53.344;14.886;2022-11-03T03:51:56;11.25;;;4.12;;
40691;SDS011;26377;53.344;14.886;2022-11-03T03:54:25;9.30;;;3.92;;
40691;SDS011;26377;53.344;14.886;2022-11-03T03:56:54;11.78;;;4.28;;
40691;SDS011;26377;53.344;14.886;2022-11-03T03:59:27;12.93;;;4.55;;
40691;SDS011;26377;53.344;14.886;2022-11-03T04:01:54;8.95;;;4.03;;
40691;SDS011;26377;53.344;14.886;2022-11-03T04:04:21;12.13;;;4.53;;
40691;SDS011;26377;53.344;14.886;2022-11-03T04:06:49;11.95;;;4.87;;
40691;SDS011;26377;53.344;14.886;2022-11-03T04:09:18;9.15;;;4.60;;
40691;SDS011;26377;53.344;14.886;2022-11-03T04:11:45;15.15;;;5.50;;
40691;SDS011;26377;53.344;14.886;2022-11-03T04:14:31;11.50;;;4.47;;
40691;SDS011;26377;53.344;14.886;2022-11-03T04:17:19;19.75;;;5.55;;
40691;SDS011;26377;53.344;14.886;2022-11-03T04:19:57;9.28;;;5.30;;
40691;SDS011;26377;53.344;14.886;2022-11-03T04:22:42;13.83;;;4.75;;
40691;SDS011;26377;53.344;14.886;2022-11-03T04:25:10;15.85;;;6.17;;
40691;SDS011;26377;53.344;14.886;2022-11-03T04:27:39;9.93;;;5.20;;
40691;SDS011;26377;53.344;14.886;2022-11-03T04:30:13;13.53;;;5.20;;
40691;SDS011;26377;53.344;14.886;2022-11-03T04:32:45;12.05;;;6.03;;
40691;SDS011;26377;53.344;14.886;2022-11-03T04:35:24;10.72;;;5.12;;
40691;SDS011;26377;53.344;14.886;2022-11-03T04:37:55;14.00;;;5.70;;
40691;SDS011;26377;53.344;14.886;2022-11-03T04:40:28;13.25;;;5.37;;
40691;SDS011;26377;53.344;14.886;2022-11-03T04:42:57;14.63;;;5.70;;
40691;SDS011;26377;53.344;14.886;2022-11-03T04:45:27;9.98;;;5.80;;
40691;SDS011;26377;53.344;14.886;2022-11-03T04:47:57;13.28;;;5.83;;
40691;SDS011;26377;53.344;14.886;2022-11-03T04:50:27;10.85;;;5.17;;
40691;SDS011;26377;53.344;14.886;2022-11-03T04:52:56;10.05;;;5.10;;
40691;SDS011;26377;53.344;14.886;2022-11-03T04:55:24;13.53;;;5.30;;
40691;SDS011;26377;53.344;14.886;2022-11-03T04:57:59;15.23;;;5.78;;
40691;SDS011;26377;53.344;14.886;2022-11-03T05:00:32;15.20;;;6.67;;
40691;SDS011;26377;53.344;14.886;2022-11-03T05:02:59;11.45;;;6.47;;
40691;SDS011;26377;53.344;14.886;2022-11-03T05:05:26;14.93;;;5.97;;
40691;SDS011;26377;53.344;14.886;2022-11-03T05:07:54;12.15;;;5.97;;
40691;SDS011;26377;53.344;14.886;2022-11-03T05:10:27;16.20;;;6.12;;
40691;SDS011;26377;53.344;14.886;2022-11-03T05:12:53;10.57;;;5.53;;
40691;SDS011;26377;53.344;14.886;2022-11-03T05:15:33;12.58;;;5.10;;
40691;SDS011;26377;53.344;14.886;2022-11-03T05:18:00;14.95;;;5.45;;
40691;SDS011;26377;53.344;14.886;2022-11-03T05:20:33;11.08;;;6.47;;
40691;SDS011;26377;53.344;14.886;2022-11-03T05:23:02;13.00;;;5.28;;
40691;SDS011;26377;53.344;14.886;2022-11-03T05:25:42;8.40;;;5.15;;
40691;SDS011;26377;53.344;14.886;2022-11-03T05:30:57;11.50;;;5.35;;
40691;SDS011;26377;53.344;14.886;2022-11-03T05:35:57;13.85;;;5.00;;
40691;SDS011;26377;53.344;14.886;2022-11-03T05:38:29;11.05;;;4.70;;
40691;SDS011;26377;53.344;14.886;2022-11-03T05:40:58;17.57;;;5.08;;
40691;SDS011;26377;53.344;14.886;2022-11-03T05:43:27;9.75;;;4.85;;
40691;SDS011;26377;53.344;14.886;2022-11-03T05:45:56;11.00;;;5.20;;
40691;SDS011;26377;53.344;14.886;2022-11-03T05:48:34;13.40;;;5.03;;
40691;SDS011;26377;53.344;14.886;2022-11-03T05:51:18;14.78;;;4.70;;
40691;SDS011;26377;53.344;14.886;2022-11-03T05:53:52;10.20;;;4.70;;
40691;SDS011;26377;53.344;14.886;2022-11-03T05:56:23;15.15;;;5.28;;
40691;SDS011;26377;53.344;14.886;2022-11-03T05:58:52;11.60;;;5.42;;
40691;SDS011;26377;53.344;14.886;2022-11-03T06:01:27;9.03;;;4.85;;
40691;SDS011;26377;53.344;14.886;2022-11-03T06:03:59;14.65;;;4.92;;
40691;SDS011;26377;53.344;14.886;2022-11-03T06:06:34;12.82;;;5.40;;
40691;SDS011;26377;53.344;14.886;2022-11-03T06:09:10;11.53;;;5.08;;
40691;SDS011;26377;53.344;14.886;2022-11-03T06:12:01;11.95;;;5.00;;
40691;SDS011;26377;53.344;14.886;2022-11-03T06:14:31;10.70;;;4.85;;
40691;SDS011;26377;53.344;14.886;2022-11-03T06:17:06;11.50;;;4.35;;
40691;SDS011;26377;53.344;14.886;2022-11-03T06:19:49;13.13;;;5.03;;
40691;SDS011;26377;53.344;14.886;2022-11-03T06:22:24;12.07;;;4.90;;
40691;SDS011;26377;53.344;14.886;2022-11-03T06:25:00;11.83;;;5.80;;
40691;SDS011;26377;53.344;14.886;2022-11-03T06:27:47;13.90;;;5.85;;
40691;SDS011;26377;53.344;14.886;2022-11-03T06:30:20;11.30;;;4.92;;
40691;SDS011;26377;53.344;14.886;2022-11-03T06:33:09;18.40;;;5.67;;
40691;SDS011;26377;53.344;14.886;2022-11-03T06:35:44;10.43;;;5.05;;
40691;SDS011;26377;53.344;14.886;2022-11-03T06:38:17;10.35;;;4.97;;
40691;SDS011;26377;53.344;14.886;2022-11-03T06:40:49;15.78;;;5.53;;
40691;SDS011;26377;53.344;14.886;2022-11-03T06:43:20;13.05;;;4.75;;
40691;SDS011;26377;53.344;14.886;2022-11-03T06:45:54;16.30;;;5.40;;
40691;SDS011;26377;53.344;14.886;2022-11-03T06:48:27;9.85;;;4.75;;
40691;SDS011;26377;53.344;14.886;2022-11-03T06:53:26;13.38;;;5.58;;
40691;SDS011;26377;53.344;14.886;2022-11-03T06:56:00;11.75;;;4.47;;
40691;SDS011;26377;53.344;14.886;2022-11-03T06:58:34;16.35;;;6.47;;
40691;SDS011;26377;53.344;14.886;2022-11-03T07:01:17;12.93;;;5.12;;
40691;SDS011;26377;53.344;14.886;2022-11-03T07:03:48;9.30;;;4.55;;
40691;SDS011;26377;53.344;14.886;2022-11-03T07:06:19;14.98;;;6.42;;
40691;SDS011;26377;53.344;14.886;2022-11-03T07:08:52;18.17;;;6.40;;
40691;SDS011;26377;53.344;14.886;2022-11-03T07:13:57;11.70;;;5.70;;
40691;SDS011;26377;53.344;14.886;2022-11-03T07:16:32;14.45;;;5.25;;
40691;SDS011;26377;53.344;14.886;2022-11-03T07:19:14;8.18;;;4.42;;
40691;SDS011;26377;53.344;14.886;2022-11-03T07:32:55;14.98;;;5.10;;
40691;SDS011;26377;53.344;14.886;2022-11-03T07:35:29;10.72;;;4.62;;
40691;SDS011;26377;53.344;14.886;2022-11-03T07:38:08;13.05;;;5.37;;
40691;SDS011;26377;53.344;14.886;2022-11-03T07:40:39;12.50;;;4.65;;
40691;SDS011;26377;53.344;14.886;2022-11-03T07:43:13;12.33;;;4.92;;
40691;SDS011;26377;53.344;14.886;2022-11-03T07:45:57;10.10;;;4.47;;
40691;SDS011;26377;53.344;14.886;2022-11-03T07:48:28;16.82;;;5.53;;
40691;SDS011;26377;53.344;14.886;2022-11-03T07:51:17;12.78;;;4.97;;
40691;SDS011;26377;53.344;14.886;2022-11-03T07:53:57;12.85;;;5.22;;
40691;SDS011;26377;53.344;14.886;2022-11-03T07:56:32;13.45;;;4.70;;
40691;SDS011;26377;53.344;14.886;2022-11-03T08:01:40;13.10;;;4.90;;
40691;SDS011;26377;53.344;14.886;2022-11-03T08:04:17;14.90;;;5.20;;
40691;SDS011;26377;53.344;14.886;2022-11-03T08:06:55;17.30;;;4.42;;
40691;SDS011;26377;53.344;14.886;2022-11-03T08:09:22;13.88;;;4.60;;
40691;SDS011;26377;53.344;14.886;2022-11-03T08:11:50;16.23;;;4.78;;
40691;SDS011;26377;53.344;14.886;2022-11-03T08:14:18;10.70;;;4.40;;
40691;SDS011;26377;53.344;14.886;2022-11-03T08:16:45;14.10;;;5.08;;
40691;SDS011;26377;53.344;14.886;2022-11-03T08:19:14;11.25;;;4.85;;
40691;SDS011;26377;53.344;14.886;2022-11-03T08:21:42;13.62;;;4.87;;
40691;SDS011;26377;53.344;14.886;2022-11-03T08:24:09;13.50;;;4.37;;
40691;SDS011;26377;53.344;14.886;2022-11-03T08:26:38;7.95;;;4.05;;
40691;SDS011;26377;53.344;14.886;2022-11-03T08:29:05;13.72;;;4.45;;
40691;SDS011;26377;53.344;14.886;2022-11-03T08:31:32;12.40;;;4.25;;
40691;SDS011;26377;53.344;14.886;2022-11-03T08:34:01;11.33;;;4.30;;
40691;SDS011;26377;53.344;14.886;2022-11-03T08:36:28;12.23;;;4.20;;
40691;SDS011;26377;53.344;14.886;2022-11-03T08:38:56;11.95;;;4.45;;
40691;SDS011;26377;53.344;14.886;2022-11-03T08:41:24;7.58;;;4.30;;
40691;SDS011;26377;53.344;14.886;2022-11-03T08:43:53;10.75;;;4.12;;
40691;SDS011;26377;53.344;14.886;2022-11-03T08:46:21;8.08;;;4.00;;
40691;SDS011;26377;53.344;14.886;2022-11-03T08:48:48;10.48;;;3.80;;
40691;SDS011;26377;53.344;14.886;2022-11-03T08:51:15;9.50;;;3.70;;
40691;SDS011;26377;53.344;14.886;2022-11-03T08:53:43;15.55;;;4.33;;
40691;SDS011;26377;53.344;14.886;2022-11-03T08:56:13;12.50;;;4.03;;
40691;SDS011;26377;53.344;14.886;2022-11-03T08:58:42;9.78;;;3.90;;
40691;SDS011;26377;53.344;14.886;2022-11-03T09:01:09;12.10;;;4.35;;
40691;SDS011;26377;53.344;14.886;2022-11-03T09:03:37;15.25;;;3.72;;
40691;SDS011;26377;53.344;14.886;2022-11-03T09:06:05;12.55;;;3.67;;
40691;SDS011;26377;53.344;14.886;2022-11-03T09:08:33;13.03;;;3.65;;
40691;SDS011;26377;53.344;14.886;2022-11-03T09:11:00;11.73;;;4.17;;
40691;SDS011;26377;53.344;14.886;2022-11-03T09:13:29;18.15;;;4.37;;
40691;SDS011;26377;53.344;14.886;2022-11-03T09:15:57;10.95;;;4.00;;
40691;SDS011;26377;53.344;14.886;2022-11-03T09:18:27;12.98;;;4.47;;
40691;SDS011;26377;53.344;14.886;2022-11-03T09:20:55;12.82;;;4.22;;
40691;SDS011;26377;53.344;14.886;2022-11-03T09:23:22;8.30;;;3.42;;
40691;SDS011;26377;53.344;14.886;2022-11-03T09:25:51;11.38;;;3.12;;
40691;SDS011;26377;53.344;14.886;2022-11-03T09:28:18;9.58;;;3.60;;
40691;SDS011;26377;53.344;14.886;2022-11-03T09:30:47;11.15;;;3.22;;
40691;SDS011;26377;53.344;14.886;2022-11-03T09:33:14;11.15;;;3.65;;
40691;SDS011;26377;53.344;14.886;2022-11-03T09:35:41;14.38;;;5.22;;
40691;SDS011;26377;53.344;14.886;2022-11-03T09:38:09;11.40;;;3.85;;
40691;SDS011;26377;53.344;14.886;2022-11-03T09:40:36;11.08;;;4.42;;
40691;SDS011;26377;53.344;14.886;2022-11-03T09:43:05;13.38;;;3.33;;
40691;SDS011;26377;53.344;14.886;2022-11-03T09:45:36;7.55;;;3.45;;
40691;SDS011;26377;53.344;14.886;2022-11-03T09:48:04;11.12;;;3.60;;
40691;SDS011;26377;53.344;14.886;2022-11-03T09:50:39;10.32;;;3.60;;
40691;SDS011;26377;53.344;14.886;2022-11-03T09:53:09;11.25;;;4.58;;
40691;SDS011;26377;53.344;14.886;2022-11-03T09:55:38;8.10;;;3.20;;
40691;SDS011;26377;53.344;14.886;2022-11-03T09:58:10;10.38;;;3.08;;
40691;SDS011;26377;53.344;14.886;2022-11-03T10:00:42;13.13;;;4.55;;
40691;SDS011;26377;53.344;14.886;2022-11-03T10:03:13;7.62;;;3.60;;
40691;SDS011;26377;53.344;14.886;2022-11-03T10:05:43;9.53;;;3.70;;
40691;SDS011;26377;53.344;14.886;2022-11-03T10:08:24;12.13;;;3.72;;
40691;SDS011;26377;53.344;14.886;2022-11-03T10:10:55;14.00;;;3.58;;
40691;SDS011;26377;53.344;14.886;2022-11-03T10:13:30;9.55;;;3.87;;
40691;SDS011;26377;53.344;14.886;2022-11-03T10:16:07;12.43;;;3.85;;
40691;SDS011;26377;53.344;14.886;2022-11-03T10:18:37;11.18;;;3.33;;
40691;SDS011;26377;53.344;14.886;2022-11-03T10:21:26;9.60;;;3.60;;
40691;SDS011;26377;53.344;14.886;2022-11-03T10:23:53;10.45;;;3.12;;
40691;SDS011;26377;53.344;14.886;2022-11-03T10:26:24;14.65;;;3.52;;
40691;SDS011;26377;53.344;14.886;2022-11-03T10:31:35;9.18;;;2.70;;
40691;SDS011;26377;53.344;14.886;2022-11-03T10:34:03;7.87;;;2.80;;
40691;SDS011;26377;53.344;14.886;2022-11-03T10:39:45;9.85;;;2.70;;
40691;SDS011;26377;53.344;14.886;2022-11-03T10:42:27;6.20;;;2.33;;
40691;SDS011;26377;53.344;14.886;2022-11-03T10:48:00;9.00;;;2.67;;
40691;SDS011;26377;53.344;14.886;2022-11-03T10:50:33;8.93;;;2.77;;
40691;SDS011;26377;53.344;14.886;2022-11-03T10:53:04;12.83;;;3.10;;
40691;SDS011;26377;53.344;14.886;2022-11-03T10:55:36;9.75;;;2.92;;
40691;SDS011;26377;53.344;14.886;2022-11-03T10:58:03;10.23;;;3.00;;
40691;SDS011;26377;53.344;14.886;2022-11-03T11:00:33;7.72;;;2.40;;
40691;SDS011;26377;53.344;14.886;2022-11-03T11:03:00;7.22;;;2.72;;
40691;SDS011;26377;53.344;14.886;2022-11-03T11:05:29;11.90;;;3.05;;
40691;SDS011;26377;53.344;14.886;2022-11-03T11:07:57;10.68;;;3.15;;
40691;SDS011;26377;53.344;14.886;2022-11-03T11:10:28;5.42;;;2.15;;
40691;SDS011;26377;53.344;14.886;2022-11-03T11:13:05;8.40;;;3.10;;
40691;SDS011;26377;53.344;14.886;2022-11-03T11:15:47;10.80;;;2.47;;
40691;SDS011;26377;53.344;14.886;2022-11-03T11:23:53;8.25;;;2.67;;
40691;SDS011;26377;53.344;14.886;2022-11-03T11:31:42;8.88;;;2.62;;
40691;SDS011;26377;53.344;14.886;2022-11-03T11:42:11;12.20;;;3.25;;
40691;SDS011;26377;53.344;14.886;2022-11-03T11:47:30;6.92;;;2.20;;
40691;SDS011;26377;53.344;14.886;2022-11-03T11:55:31;8.00;;;2.10;;
40691;SDS011;26377;53.344;14.886;2022-11-03T11:58:32;8.50;;;2.47;;
40691;SDS011;26377;53.344;14.886;2022-11-03T12:03:50;6.83;;;2.62;;
40691;SDS011;26377;53.344;14.886;2022-11-03T12:06:35;9.08;;;2.17;;
40691;SDS011;26377;53.344;14.886;2022-11-03T12:09:03;6.92;;;2.40;;
40691;SDS011;26377;53.344;14.886;2022-11-03T12:11:41;5.33;;;2.47;;
40691;SDS011;26377;53.344;14.886;2022-11-03T12:14:23;7.95;;;2.47;;
40691;SDS011;26377;53.344;14.886;2022-11-03T12:16:57;5.50;;;2.60;;
40691;SDS011;26377;53.344;14.886;2022-11-03T12:19:49;7.03;;;2.42;;
40691;SDS011;26377;53.344;14.886;2022-11-03T12:24:57;8.05;;;2.77;;
40691;SDS011;26377;53.344;14.886;2022-11-03T12:30:05;9.35;;;2.45;;
40691;SDS011;26377;53.344;14.886;2022-11-03T12:32:38;8.33;;;2.90;;
40691;SDS011;26377;53.344;14.886;2022-11-03T12:35:06;6.60;;;2.55;;
40691;SDS011;26377;53.344;14.886;2022-11-03T12:37:35;8.60;;;2.95;;
40691;SDS011;26377;53.344;14.886;2022-11-03T12:40:08;9.15;;;2.60;;
40691;SDS011;26377;53.344;14.886;2022-11-03T12:42:39;7.70;;;3.02;;
40691;SDS011;26377;53.344;14.886;2022-11-03T12:45:06;8.65;;;3.33;;
40691;SDS011;26377;53.344;14.886;2022-11-03T12:47:34;8.60;;;2.87;;
40691;SDS011;26377;53.344;14.886;2022-11-03T12:50:03;8.88;;;2.95;;
40691;SDS011;26377;53.344;14.886;2022-11-03T12:52:32;6.97;;;2.47;;
40691;SDS011;26377;53.344;14.886;2022-11-03T12:55:00;10.58;;;2.20;;
40691;SDS011;26377;53.344;14.886;2022-11-03T12:57:28;8.05;;;2.55;;
40691;SDS011;26377;53.344;14.886;2022-11-03T12:59:57;11.20;;;2.33;;
40691;SDS011;26377;53.344;14.886;2022-11-03T13:02:25;8.03;;;2.22;;
40691;SDS011;26377;53.344;14.886;2022-11-03T13:04:58;7.15;;;2.65;;
40691;SDS011;26377;53.344;14.886;2022-11-03T13:07:27;6.92;;;3.15;;
40691;SDS011;26377;53.344;14.886;2022-11-03T13:09:56;6.85;;;2.45;;
40691;SDS011;26377;53.344;14.886;2022-11-03T13:12:25;5.47;;;2.17;;
40691;SDS011;26377;53.344;14.886;2022-11-03T13:15:00;8.18;;;2.60;;
40691;SDS011;26377;53.344;14.886;2022-11-03T13:17:35;9.93;;;2.80;;
40691;SDS011;26377;53.344;14.886;2022-11-03T13:20:02;6.10;;;2.50;;
40691;SDS011;26377;53.344;14.886;2022-11-03T13:22:31;10.58;;;2.98;;
40691;SDS011;26377;53.344;14.886;2022-11-03T13:24:58;8.08;;;3.02;;
40691;SDS011;26377;53.344;14.886;2022-11-03T13:27:28;7.15;;;2.67;;
40691;SDS011;26377;53.344;14.886;2022-11-03T13:29:56;8.95;;;3.33;;
40691;SDS011;26377;53.344;14.886;2022-11-03T13:32:23;9.93;;;3.25;;
40691;SDS011;26377;53.344;14.886;2022-11-03T13:34:51;5.35;;;2.55;;
40691;SDS011;26377;53.344;14.886;2022-11-03T13:37:17;6.08;;;2.00;;
40691;SDS011;26377;53.344;14.886;2022-11-03T13:39:45;6.85;;;2.20;;
40691;SDS011;26377;53.344;14.886;2022-11-03T13:42:12;7.08;;;2.60;;
40691;SDS011;26377;53.344;14.886;2022-11-03T13:44:41;11.08;;;5.62;;
40691;SDS011;26377;53.344;14.886;2022-11-03T13:47:08;10.53;;;4.12;;
40691;SDS011;26377;53.344;14.886;2022-11-03T13:49:36;9.20;;;3.90;;
40691;SDS011;26377;53.344;14.886;2022-11-03T13:52:05;10.18;;;2.90;;
40691;SDS011;26377;53.344;14.886;2022-11-03T13:54:32;8.70;;;3.10;;
40691;SDS011;26377;53.344;14.886;2022-11-03T13:57:01;7.50;;;3.02;;
40691;SDS011;26377;53.344;14.886;2022-11-03T13:59:28;13.58;;;5.35;;
40691;SDS011;26377;53.344;14.886;2022-11-03T14:01:56;8.23;;;3.10;;
40691;SDS011;26377;53.344;14.886;2022-11-03T14:04:25;7.70;;;3.45;;
40691;SDS011;26377;53.344;14.886;2022-11-03T14:06:56;10.65;;;3.05;;
40691;SDS011;26377;53.344;14.886;2022-11-03T14:09:25;8.88;;;3.77;;
40691;SDS011;26377;53.344;14.886;2022-11-03T14:11:54;10.98;;;2.33;;
40691;SDS011;26377;53.344;14.886;2022-11-03T14:14:41;8.25;;;2.17;;
40691;SDS011;26377;53.344;14.886;2022-11-03T14:17:08;9.80;;;2.55;;
40691;SDS011;26377;53.344;14.886;2022-11-03T14:19:39;8.48;;;2.37;;
40691;SDS011;26377;53.344;14.886;2022-11-03T14:22:06;8.40;;;2.77;;
40691;SDS011;26377;53.344;14.886;2022-11-03T14:24:34;7.20;;;2.92;;
40691;SDS011;26377;53.344;14.886;2022-11-03T14:27:03;11.05;;;2.00;;
40691;SDS011;26377;53.344;14.886;2022-11-03T14:29:30;6.95;;;2.33;;
40691;SDS011;26377;53.344;14.886;2022-11-03T14:31:57;10.08;;;2.72;;
40691;SDS011;26377;53.344;14.886;2022-11-03T14:34:25;10.68;;;2.85;;
40691;SDS011;26377;53.344;14.886;2022-11-03T14:36:52;6.33;;;2.72;;
40691;SDS011;26377;53.344;14.886;2022-11-03T14:39:21;6.90;;;2.70;;
40691;SDS011;26377;53.344;14.886;2022-11-03T14:41:50;7.12;;;2.27;;
40691;SDS011;26377;53.344;14.886;2022-11-03T14:44:33;8.15;;;2.42;;
40691;SDS011;26377;53.344;14.886;2022-11-03T14:47:04;7.08;;;2.65;;
40691;SDS011;26377;53.344;14.886;2022-11-03T14:49:34;7.58;;;3.22;;
40691;SDS011;26377;53.344;14.886;2022-11-03T14:52:02;7.92;;;3.50;;
40691;SDS011;26377;53.344;14.886;2022-11-03T14:54:34;7.87;;;3.02;;
40691;SDS011;26377;53.344;14.886;2022-11-03T14:57:03;26.02;;;12.45;;
40691;SDS011;26377;53.344;14.886;2022-11-03T14:59:31;10.53;;;5.25;;
40691;SDS011;26377;53.344;14.886;2022-11-03T15:02:03;14.93;;;6.05;;
40691;SDS011;26377;53.344;14.886;2022-11-03T15:04:30;15.68;;;6.10;;
40691;SDS011;26377;53.344;14.886;2022-11-03T15:07:00;7.67;;;3.62;;
40691;SDS011;26377;53.344;14.886;2022-11-03T15:09:29;8.05;;;3.02;;
40691;SDS011;26377;53.344;14.886;2022-11-03T15:11:58;7.10;;;2.67;;
40691;SDS011;26377;53.344;14.886;2022-11-03T15:14:27;21.37;;;8.65;;
40691;SDS011;26377;53.344;14.886;2022-11-03T15:16:59;10.53;;;4.40;;
40691;SDS011;26377;53.344;14.886;2022-11-03T15:19:30;11.08;;;3.70;;
40691;SDS011;26377;53.344;14.886;2022-11-03T15:21:57;9.05;;;3.33;;
40691;SDS011;26377;53.344;14.886;2022-11-03T15:24:24;8.10;;;3.17;;
40691;SDS011;26377;53.344;14.886;2022-11-03T15:26:53;11.80;;;3.80;;
40691;SDS011;26377;53.344;14.886;2022-11-03T15:29:23;8.28;;;4.20;;
40691;SDS011;26377;53.344;14.886;2022-11-03T15:31:54;10.57;;;3.87;;
40691;SDS011;26377;53.344;14.886;2022-11-03T15:34:23;10.95;;;5.08;;
40691;SDS011;26377;53.344;14.886;2022-11-03T15:36:50;13.18;;;5.78;;
40691;SDS011;26377;53.344;14.886;2022-11-03T15:39:18;8.03;;;4.15;;
40691;SDS011;26377;53.344;14.886;2022-11-03T15:41:48;10.80;;;4.60;;
40691;SDS011;26377;53.344;14.886;2022-11-03T15:44:16;13.95;;;4.50;;
40691;SDS011;26377;53.344;14.886;2022-11-03T15:46:43;9.55;;;4.00;;
40691;SDS011;26377;53.344;14.886;2022-11-03T15:49:10;15.05;;;4.53;;
40691;SDS011;26377;53.344;14.886;2022-11-03T15:51:37;12.70;;;4.30;;
40691;SDS011;26377;53.344;14.886;2022-11-03T15:54:09;10.08;;;4.12;;
40691;SDS011;26377;53.344;14.886;2022-11-03T15:56:37;12.28;;;4.37;;
40691;SDS011;26377;53.344;14.886;2022-11-03T15:59:07;14.87;;;5.17;;
40691;SDS011;26377;53.344;14.886;2022-11-03T16:01:34;13.58;;;5.60;;
40691;SDS011;26377;53.344;14.886;2022-11-03T16:04:02;17.20;;;6.28;;
40691;SDS011;26377;53.344;14.886;2022-11-03T16:06:31;16.17;;;7.50;;
40691;SDS011;26377;53.344;14.886;2022-11-03T16:08:59;24.20;;;9.60;;